Time;durP1;ratioP1;P1;durP2;ratioP2;P2;SDS_P1;SDS_P2;PMS_P1;PMS_P2;Temp;Humidity;BMP_temperature;BMP_pressure;BME280_temperature;BME280_humidity;BME280_pressure;Samples;Min_cycle;Max_cycle;Signal;HPM_P1;HPM_P2
2022/07/10 00:00:37;;;;;;;11.25;3.10;;;16.80;99.90;;;;;;4996342;28;20440;-68
2022/07/10 00:03:04;;;;;;;10.20;4.60;;;16.80;99.90;;;;;;4995884;28;20053;-64
2022/07/10 00:05:29;;;;;;;10.93;3.45;;;16.70;99.90;;;;;;4995231;28;20089;-65
2022/07/10 00:07:55;;;;;;;19.38;6.38;;;16.70;99.90;;;;;;4994963;28;20038;-63
2022/07/10 00:10:21;;;;;;;11.60;2.03;;;16.60;99.90;;;;;;4995866;28;20045;-65
2022/07/10 00:12:48;;;;;;;11.57;3.42;;;16.50;99.90;;;;;;4996493;28;20110;-63
2022/07/10 00:15:15;;;;;;;9.40;2.60;;;16.50;99.90;;;;;;4994917;28;20383;-64
2022/07/10 00:17:41;;;;;;;8.75;2.47;;;16.40;99.90;;;;;;4996071;28;20054;-66
2022/07/10 00:20:07;;;;;;;7.15;2.10;;;16.40;99.90;;;;;;4996379;28;20068;-64
2022/07/10 00:22:34;;;;;;;8.98;2.50;;;16.40;99.90;;;;;;4996022;28;20024;-63
2022/07/10 00:25:01;;;;;;;7.07;2.28;;;16.30;99.90;;;;;;4996307;28;20468;-65
2022/07/10 00:27:26;;;;;;;11.93;2.20;;;16.30;99.90;;;;;;4996074;28;20093;-63
2022/07/10 00:29:52;;;;;;;10.43;3.50;;;16.20;99.90;;;;;;4996459;28;20444;-64
2022/07/10 00:32:18;;;;;;;15.77;6.85;;;16.30;99.90;;;;;;4995908;28;20022;-67
2022/07/10 00:34:43;;;;;;;7.38;1.85;;;16.30;99.90;;;;;;4996047;28;20022;-64
2022/07/10 00:37:36;;;;;;;8.93;2.40;;;16.20;99.90;;;;;;4996127;28;20396;-64
2022/07/10 00:40:15;;;;;;;9.40;2.30;;;16.20;99.90;;;;;;4994137;28;20085;-64
2022/07/10 00:43:06;;;;;;;13.88;4.43;;;16.20;99.90;;;;;;4996275;28;20026;-67
2022/07/10 00:45:32;;;;;;;12.00;3.60;;;16.20;99.90;;;;;;4976412;28;20170;-64
2022/07/10 00:47:57;;;;;;;13.15;4.53;;;16.20;99.90;;;;;;4975034;28;20481;-63
2022/07/10 00:50:23;;;;;;;16.73;6.68;;;16.20;99.90;;;;;;4976782;28;20457;-64
2022/07/10 00:52:49;;;;;;;26.75;9.27;;;16.20;99.90;;;;;;4976152;28;20031;-63
2022/07/10 00:55:14;;;;;;;12.68;4.28;;;16.20;99.90;;;;;;4974733;28;20023;-70
2022/07/10 00:57:40;;;;;;;12.85;4.05;;;16.20;99.90;;;;;;4976486;28;20027;-64
2022/07/10 01:00:09;;;;;;;15.43;5.45;;;16.20;99.90;;;;;;4975841;28;20372;-64
2022/07/10 01:02:35;;;;;;;7.63;2.60;;;16.20;99.90;;;;;;4974600;28;20113;-64
2022/07/10 01:05:01;;;;;;;12.00;3.05;;;16.20;99.90;;;;;;4976269;28;20158;-64
2022/07/10 01:07:26;;;;;;;9.10;2.70;;;16.30;99.90;;;;;;4975778;28;20486;-65
2022/07/10 01:09:52;;;;;;;7.30;2.63;;;16.20;99.90;;;;;;4975532;28;20019;-65
2022/07/10 01:12:18;;;;;;;13.35;3.58;;;16.20;99.90;;;;;;4975757;28;20078;-68
2022/07/10 01:14:43;;;;;;;6.60;1.65;;;16.10;99.90;;;;;;4975841;28;20061;-63
2022/07/10 01:17:10;;;;;;;15.13;3.85;;;16.10;99.90;;;;;;4975729;28;20424;-67
2022/07/10 01:19:36;;;;;;;12.70;3.50;;;16.00;99.90;;;;;;4975721;28;20054;-68
2022/07/10 01:22:01;;;;;;;13.23;2.83;;;16.00;99.90;;;;;;4975497;28;20019;-63
2022/07/10 01:24:27;;;;;;;13.73;3.60;;;16.00;99.90;;;;;;4975550;28;20037;-65
2022/07/10 01:26:52;;;;;;;8.00;2.58;;;16.00;99.90;;;;;;4975734;28;20035;-64
2022/07/10 01:29:19;;;;;;;13.13;2.95;;;15.90;99.90;;;;;;4975593;28;20031;-65
2022/07/10 01:31:46;;;;;;;12.27;2.67;;;15.90;99.90;;;;;;4975411;28;20046;-63
2022/07/10 01:34:11;;;;;;;11.25;3.38;;;15.80;99.90;;;;;;4975353;28;20023;-65
2022/07/10 01:36:37;;;;;;;9.85;2.05;;;15.80;99.90;;;;;;4975200;28;20077;-64
2022/07/10 01:39:04;;;;;;;12.32;2.72;;;15.90;99.90;;;;;;4974635;28;20023;-66
2022/07/10 01:41:30;;;;;;;14.13;3.03;;;15.90;99.90;;;;;;4975215;28;20030;-66
2022/07/10 01:43:55;;;;;;;8.60;2.38;;;15.90;99.90;;;;;;4974928;28;20022;-64
2022/07/10 01:46:21;;;;;;;9.10;2.40;;;15.90;99.90;;;;;;4975117;28;20034;-67
2022/07/10 01:48:47;;;;;;;11.57;2.55;;;15.90;99.90;;;;;;4974921;28;20038;-64
2022/07/10 01:51:13;;;;;;;9.15;2.88;;;16.00;99.90;;;;;;4973655;28;20029;-64
2022/07/10 01:53:39;;;;;;;11.70;3.00;;;16.00;99.90;;;;;;4975268;28;20027;-66
2022/07/10 01:56:07;;;;;;;8.98;2.30;;;16.00;99.90;;;;;;4974699;28;20023;-64
2022/07/10 01:58:34;;;;;;;10.10;3.08;;;16.10;99.90;;;;;;4974546;28;20047;-64
2022/07/10 02:00:59;;;;;;;9.63;2.65;;;16.20;99.90;;;;;;4975051;28;20488;-64
2022/07/10 02:06:29;;;;;;;7.35;2.05;;;16.20;99.90;;;;;;4972160;28;20064;-64
2022/07/10 02:08:55;;;;;;;9.43;2.05;;;16.30;99.90;;;;;;4972243;28;20440;-66
2022/07/10 02:11:21;;;;;;;9.20;2.95;;;16.40;99.90;;;;;;4964363;28;20075;-65
2022/07/10 02:13:46;;;;;;;8.35;2.55;;;16.40;99.90;;;;;;4955582;28;20023;-67
2022/07/10 02:16:12;;;;;;;5.90;1.90;;;16.40;99.90;;;;;;4955452;28;20019;-67
2022/07/10 02:18:39;;;;;;;5.88;2.00;;;16.50;99.90;;;;;;4955026;28;20019;-63
2022/07/10 02:21:04;;;;;;;12.43;2.67;;;16.50;99.90;;;;;;4955286;28;20019;-69
2022/07/10 02:23:30;;;;;;;9.90;2.45;;;16.50;99.90;;;;;;4955244;28;20113;-65
2022/07/10 02:25:56;;;;;;;9.32;3.45;;;16.60;99.90;;;;;;4955318;28;20139;-68
2022/07/10 02:28:21;;;;;;;9.70;2.78;;;16.60;99.90;;;;;;4954682;28;20483;-64
2022/07/10 02:30:47;;;;;;;10.50;2.63;;;16.60;99.90;;;;;;4954925;28;20070;-64
2022/07/10 02:33:12;;;;;;;11.35;2.22;;;16.60;99.90;;;;;;4954823;28;20031;-64
2022/07/10 02:35:38;;;;;;;12.73;2.80;;;16.60;99.90;;;;;;4954973;28;20027;-64
2022/07/10 02:38:04;;;;;;;9.70;2.38;;;16.60;99.90;;;;;;4953757;29;20054;-64
2022/07/10 02:40:29;;;;;;;9.63;2.50;;;16.60;99.90;;;;;;4954977;28;20480;-63
2022/07/10 02:42:55;;;;;;;13.90;2.92;;;16.70;99.90;;;;;;4954714;28;20459;-64
2022/07/10 02:45:20;;;;;;;6.63;2.13;;;16.70;99.90;;;;;;4954885;28;20055;-64
2022/07/10 02:47:46;;;;;;;7.90;2.22;;;16.70;99.90;;;;;;4954437;28;20070;-65
2022/07/10 02:50:11;;;;;;;12.52;3.10;;;16.70;99.90;;;;;;4954944;28;20023;-63
2022/07/10 02:52:37;;;;;;;6.40;1.77;;;16.70;99.90;;;;;;4954021;28;20035;-63
2022/07/10 02:55:02;;;;;;;12.60;2.03;;;16.70;99.90;;;;;;4953850;29;20027;-67
2022/07/10 02:57:28;;;;;;;11.98;2.55;;;16.80;99.90;;;;;;4954523;28;20034;-66
2022/07/10 02:59:54;;;;;;;8.77;2.10;;;16.80;99.90;;;;;;4954695;28;20105;-64
2022/07/10 03:02:19;;;;;;;9.02;2.13;;;16.80;99.90;;;;;;4954207;28;20171;-66
2022/07/10 03:04:45;;;;;;;10.48;1.92;;;16.80;99.90;;;;;;4953469;28;20378;-64
2022/07/10 03:07:10;;;;;;;7.63;1.77;;;16.80;99.90;;;;;;4954751;28;20099;-66
2022/07/10 03:09:36;;;;;;;10.68;2.10;;;16.80;99.90;;;;;;4963474;28;20027;-67
2022/07/10 03:12:01;;;;;;;10.20;2.67;;;16.80;99.90;;;;;;4973545;28;20350;-64
2022/07/10 03:14:27;;;;;;;7.95;2.10;;;16.90;99.90;;;;;;4972824;28;20026;-64
2022/07/10 03:16:53;;;;;;;8.13;1.80;;;16.90;99.90;;;;;;4973778;28;20023;-65
2022/07/10 03:19:18;;;;;;;8.40;2.42;;;16.90;99.90;;;;;;4973929;28;20450;-64
2022/07/10 03:21:45;;;;;;;7.43;1.60;;;16.90;99.90;;;;;;4973689;28;20138;-65
2022/07/10 03:24:11;;;;;;;7.47;1.77;;;17.00;99.90;;;;;;4973792;28;20019;-67
2022/07/10 03:26:36;;;;;;;7.90;1.75;;;16.90;99.90;;;;;;4973324;28;20373;-63
2022/07/10 03:29:02;;;;;;;4.63;1.52;;;17.00;99.90;;;;;;4973947;28;20027;-66
2022/07/10 03:31:28;;;;;;;10.85;2.30;;;17.00;99.90;;;;;;4973660;28;20113;-62
2022/07/10 03:33:53;;;;;;;7.10;1.48;;;17.00;99.90;;;;;;4973594;28;20433;-64
2022/07/10 03:36:19;;;;;;;5.45;1.70;;;17.00;99.90;;;;;;4973719;28;20578;-64
2022/07/10 03:38:46;;;;;;;9.18;2.05;;;17.00;99.90;;;;;;4972432;28;20030;-68
2022/07/10 03:41:12;;;;;;;6.55;1.65;;;17.00;99.90;;;;;;4973793;28;20019;-65
2022/07/10 03:43:38;;;;;;;8.57;1.77;;;17.00;99.90;;;;;;4972295;28;20027;-65
2022/07/10 03:46:03;;;;;;;8.38;2.13;;;17.00;99.90;;;;;;4973339;28;20138;-63
2022/07/10 03:48:29;;;;;;;7.28;1.38;;;17.00;99.90;;;;;;4973381;28;20053;-66
2022/07/10 03:50:54;;;;;;;11.45;2.10;;;17.00;99.90;;;;;;4973532;28;20034;-67
2022/07/10 03:53:20;;;;;;;7.20;1.65;;;17.00;99.90;;;;;;4973402;28;20449;-63
2022/07/10 03:55:46;;;;;;;9.18;1.80;;;17.00;99.90;;;;;;4973026;28;20023;-63
2022/07/10 03:58:11;;;;;;;10.00;1.70;;;17.00;99.90;;;;;;4973443;28;20027;-65
2022/07/10 04:00:38;;;;;;;8.13;1.50;;;17.10;99.90;;;;;;4972823;28;20033;-63
2022/07/10 04:03:07;;;;;;;5.70;1.50;;;17.00;99.90;;;;;;4974900;28;20050;-64
2022/07/10 04:05:33;;;;;;;9.10;2.10;;;17.10;99.90;;;;;;4976975;28;20027;-68
2022/07/10 04:08:00;;;;;;;8.10;2.15;;;17.10;99.90;;;;;;4976854;28;20054;-64
2022/07/10 04:10:27;;;;;;;9.43;1.73;;;17.10;99.90;;;;;;4976780;28;20030;-64
2022/07/10 04:12:53;;;;;;;9.63;1.45;;;17.10;99.90;;;;;;4977028;28;20050;-64
2022/07/10 04:15:19;;;;;;;6.78;1.60;;;17.10;99.90;;;;;;4976736;28;20454;-67
2022/07/10 04:17:45;;;;;;;9.30;1.70;;;17.10;99.90;;;;;;4976806;28;20034;-64
2022/07/10 04:20:11;;;;;;;7.85;1.50;;;17.10;99.90;;;;;;4976389;28;20473;-68
2022/07/10 04:22:37;;;;;;;8.68;1.90;;;17.10;99.90;;;;;;4976575;28;20034;-64
2022/07/10 04:25:04;;;;;;;11.55;1.90;;;17.10;99.90;;;;;;4976773;28;20337;-64
2022/07/10 04:27:29;;;;;;;7.65;2.25;;;17.10;99.90;;;;;;4976267;28;20035;-67
2022/07/10 04:29:55;;;;;;;7.15;1.77;;;17.10;99.90;;;;;;4976369;28;20023;-64
2022/07/10 04:32:21;;;;;;;8.63;1.42;;;17.20;99.90;;;;;;4976534;28;20445;-65
2022/07/10 04:34:46;;;;;;;7.03;1.60;;;17.20;99.90;;;;;;4976254;28;20396;-66
2022/07/10 04:37:12;;;;;;;9.45;1.73;;;17.20;99.90;;;;;;4976395;28;20121;-64
2022/07/10 04:39:39;;;;;;;6.90;1.90;;;17.20;99.90;;;;;;4975314;28;20026;-66
2022/07/10 04:42:06;;;;;;;6.47;1.83;;;17.20;99.90;;;;;;4975661;28;20046;-63
2022/07/10 04:44:31;;;;;;;10.13;2.08;;;17.20;99.90;;;;;;4975597;28;20065;-66
2022/07/10 04:46:58;;;;;;;9.77;2.15;;;17.20;99.90;;;;;;4976072;28;20441;-67
2022/07/10 04:49:24;;;;;;;7.82;1.88;;;17.30;99.90;;;;;;4974537;28;20324;-67
2022/07/10 04:51:49;;;;;;;7.28;1.60;;;17.30;99.90;;;;;;4976060;28;20461;-67
2022/07/10 04:54:15;;;;;;;6.20;1.40;;;17.30;99.90;;;;;;4975839;28;20018;-64
2022/07/10 04:56:40;;;;;;;6.50;1.63;;;17.30;99.90;;;;;;4976004;28;21353;-66
2022/07/10 04:59:06;;;;;;;7.70;1.38;;;17.30;99.90;;;;;;4973973;28;20136;-66
2022/07/10 05:01:32;;;;;;;7.18;1.58;;;17.30;99.90;;;;;;4975729;28;20057;-67
2022/07/10 05:03:57;;;;;;;8.40;1.92;;;17.30;99.90;;;;;;4975538;28;20065;-66
2022/07/10 05:06:23;;;;;;;7.35;1.92;;;17.30;99.90;;;;;;4975781;28;20089;-64
2022/07/10 05:08:49;;;;;;;8.55;1.30;;;17.40;99.90;;;;;;4975665;28;20037;-64
2022/07/10 05:11:14;;;;;;;6.45;1.80;;;17.40;99.90;;;;;;4975834;28;20422;-64
2022/07/10 05:13:40;;;;;;;7.40;1.60;;;17.40;99.90;;;;;;4975245;28;20023;-64
2022/07/10 05:16:06;;;;;;;8.82;1.90;;;17.50;99.90;;;;;;4975174;28;20046;-67
2022/07/10 05:18:31;;;;;;;5.60;1.50;;;17.50;99.90;;;;;;4975619;28;20022;-64
2022/07/10 05:20:57;;;;;;;5.88;2.05;;;17.60;99.90;;;;;;4975631;28;20362;-64
2022/07/10 05:23:23;;;;;;;9.80;1.90;;;17.70;99.90;;;;;;4975856;28;20069;-67
2022/07/10 05:25:49;;;;;;;6.18;1.40;;;17.80;99.90;;;;;;4974197;28;20022;-64
2022/07/10 05:28:14;;;;;;;7.88;1.80;;;17.80;99.90;;;;;;4975575;28;20031;-67
2022/07/10 05:30:41;;;;;;;4.32;1.30;;;17.80;99.90;;;;;;4975905;28;20030;-67
2022/07/10 05:33:07;;;;;;;3.58;1.30;;;17.90;99.90;;;;;;4973026;28;20455;-65
2022/07/10 05:35:33;;;;;;;5.07;1.50;;;17.90;99.90;;;;;;4975036;28;20022;-64
2022/07/10 05:37:59;;;;;;;6.10;1.33;;;18.00;99.90;;;;;;4974906;28;20097;-69
2022/07/10 05:40:24;;;;;;;4.78;1.63;;;18.00;99.90;;;;;;4973683;28;20504;-67
2022/07/10 05:42:50;;;;;;;5.18;1.23;;;18.10;99.90;;;;;;4975067;28;20022;-65
2022/07/10 05:45:16;;;;;;;4.88;1.77;;;18.10;99.90;;;;;;4975119;28;20129;-65
2022/07/10 05:47:42;;;;;;;4.65;1.63;;;18.20;99.90;;;;;;4975621;28;20141;-67
2022/07/10 05:50:08;;;;;;;5.85;1.42;;;18.30;99.90;;;;;;4975594;28;20025;-63
2022/07/10 05:52:34;;;;;;;5.20;1.30;;;18.30;99.90;;;;;;4975332;28;20043;-62
2022/07/10 05:54:59;;;;;;;9.63;1.42;;;18.40;99.90;;;;;;4975437;28;20030;-64
2022/07/10 05:57:25;;;;;;;6.68;1.48;;;18.40;99.90;;;;;;4974824;28;20107;-67
2022/07/10 05:59:51;;;;;;;5.63;1.40;;;18.60;99.90;;;;;;4975292;28;20027;-66
2022/07/10 06:02:17;;;;;;;4.22;1.20;;;18.70;99.90;;;;;;4975166;28;20026;-64
2022/07/10 06:04:42;;;;;;;4.38;1.48;;;18.80;99.90;;;;;;4975147;28;20027;-68
2022/07/10 06:07:08;;;;;;;4.00;1.45;;;18.80;99.90;;;;;;4975033;28;20039;-63
2022/07/10 06:09:34;;;;;;;6.68;1.42;;;19.10;99.90;;;;;;4975264;28;20058;-65
2022/07/10 06:12:00;;;;;;;3.20;1.20;;;19.30;99.90;;;;;;4974828;28;20062;-64
2022/07/10 06:14:26;;;;;;;3.55;1.13;;;19.40;99.90;;;;;;4973732;28;20414;-65
2022/07/10 06:16:51;;;;;;;3.30;1.08;;;19.50;99.90;;;;;;4975027;28;20512;-64
2022/07/10 06:19:18;;;;;;;4.07;1.08;;;19.60;99.90;;;;;;4974989;28;20023;-64
2022/07/10 06:21:44;;;;;;;5.72;1.40;;;19.70;99.90;;;;;;4975185;28;20023;-65
2022/07/10 06:24:10;;;;;;;5.13;1.30;;;19.70;99.90;;;;;;4975000;28;20058;-64
2022/07/10 06:26:35;;;;;;;6.03;1.30;;;19.70;99.90;;;;;;4974473;28;20121;-65
2022/07/10 06:29:01;;;;;;;5.85;1.20;;;19.70;99.90;;;;;;4974797;28;20034;-64
2022/07/10 06:31:27;;;;;;;4.10;1.35;;;19.60;99.90;;;;;;4974539;28;20038;-64
2022/07/10 06:33:52;;;;;;;5.32;1.20;;;19.50;99.90;;;;;;4974923;28;20027;-65
2022/07/10 06:36:18;;;;;;;7.78;1.52;;;19.50;99.90;;;;;;4974496;28;20034;-63
2022/07/10 06:38:43;;;;;;;3.42;1.65;;;19.50;99.90;;;;;;4974559;28;20054;-64
2022/07/10 06:41:09;;;;;;;5.32;1.38;;;19.60;99.90;;;;;;4974349;28;20030;-65
2022/07/10 06:43:35;;;;;;;4.85;1.40;;;19.80;99.90;;;;;;4973468;28;20025;-63
2022/07/10 06:46:00;;;;;;;3.20;1.23;;;19.90;99.90;;;;;;4972822;28;20104;-64
2022/07/10 06:48:27;;;;;;;5.70;1.40;;;20.20;99.90;;;;;;4974465;28;20110;-68
2022/07/10 06:50:53;;;;;;;3.17;1.30;;;20.50;99.90;;;;;;4974302;28;20022;-64
2022/07/10 06:53:23;;;;;;;7.93;1.60;;;20.70;99.90;;;;;;4973058;28;20346;-64
2022/07/10 06:55:50;;;;;;;6.53;1.45;;;20.80;99.60;;;;;;4974120;28;20434;-65
2022/07/10 06:58:16;;;;;;;6.38;1.30;;;20.80;99.60;;;;;;4974186;28;20022;-63
2022/07/10 07:00:42;;;;;;;5.63;1.25;;;20.70;99.70;;;;;;4973929;28;20453;-63
2022/07/10 07:03:07;;;;;;;2.67;1.17;;;20.70;99.80;;;;;;4974043;28;20026;-63
2022/07/10 07:05:33;;;;;;;4.93;1.25;;;20.60;99.90;;;;;;4974649;28;20080;-67
2022/07/10 07:07:59;;;;;;;5.43;1.10;;;20.50;99.90;;;;;;4973640;28;20065;-62
2022/07/10 07:10:24;;;;;;;4.90;1.70;;;20.50;99.90;;;;;;4972591;28;20034;-63
2022/07/10 07:12:50;;;;;;;3.78;1.83;;;20.40;99.90;;;;;;4974036;28;20015;-64
2022/07/10 07:15:16;;;;;;;2.53;1.33;;;20.50;99.90;;;;;;4974228;28;20023;-65
2022/07/10 07:17:56;;;;;;;5.63;1.67;;;20.50;99.90;;;;;;4974025;28;20023;-64
2022/07/10 07:23:10;;;;;;;4.97;1.33;;;20.50;99.90;;;;;;4974050;28;20039;-63
2022/07/10 07:25:38;;;;;;;5.50;1.67;;;20.60;99.90;;;;;;4974276;28;20033;-64
2022/07/10 07:28:03;;;;;;;4.30;1.40;;;20.80;99.90;;;;;;4972728;28;20424;-63
2022/07/10 07:30:29;;;;;;;3.58;1.40;;;21.00;99.80;;;;;;4974155;28;20038;-63
2022/07/10 07:32:55;;;;;;;3.35;1.83;;;21.20;99.40;;;;;;4973953;28;20107;-64
2022/07/10 07:35:21;;;;;;;6.85;1.60;;;21.40;99.00;;;;;;4974094;28;20022;-66
2022/07/10 07:37:50;;;;;;;6.10;2.00;;;21.60;98.70;;;;;;4975088;28;20026;-66
2022/07/10 07:40:21;;;;;;;4.53;1.58;;;21.70;98.60;;;;;;4977968;28;20025;-68
2022/07/10 07:42:47;;;;;;;4.03;1.30;;;21.80;98.40;;;;;;4977499;28;20476;-66
2022/07/10 07:45:12;;;;;;;3.47;1.02;;;21.80;98.20;;;;;;4977838;28;20043;-66
2022/07/10 07:47:51;;;;;;;6.07;1.40;;;22.00;97.90;;;;;;4976211;28;20031;-63
2022/07/10 07:50:21;;;;;;;6.68;1.80;;;22.20;97.80;;;;;;4977948;28;20026;-64
2022/07/10 07:52:47;;;;;;;4.97;1.73;;;22.40;97.60;;;;;;4976859;28;20022;-67
2022/07/10 07:55:15;;;;;;;3.65;1.77;;;22.50;97.60;;;;;;4977602;28;20110;-66
2022/07/10 07:57:41;;;;;;;2.80;0.98;;;22.60;97.20;;;;;;4976895;28;20469;-66
2022/07/10 08:00:08;;;;;;;7.57;1.75;;;22.70;96.80;;;;;;4976056;28;20496;-64
2022/07/10 08:02:35;;;;;;;4.65;1.40;;;22.70;96.70;;;;;;4977580;28;20019;-65
2022/07/10 08:05:01;;;;;;;3.47;1.63;;;23.00;96.70;;;;;;4977702;28;20026;-64
2022/07/10 08:07:37;;;;;;;4.60;1.10;;;23.20;96.00;;;;;;4977493;28;20030;-64
2022/07/10 08:10:04;;;;;;;4.38;1.98;;;23.50;95.80;;;;;;4977450;28;20034;-64
2022/07/10 08:12:30;;;;;;;2.03;1.30;;;23.70;95.60;;;;;;4977419;28;20027;-64
2022/07/10 08:14:56;;;;;;;4.57;1.35;;;23.90;95.20;;;;;;4977297;28;20026;-65
2022/07/10 08:17:21;;;;;;;3.78;1.45;;;24.10;94.90;;;;;;4977281;28;20018;-64
2022/07/10 08:19:47;;;;;;;4.60;1.38;;;24.10;94.70;;;;;;4977125;28;20019;-64
2022/07/10 08:22:13;;;;;;;2.05;1.00;;;24.10;94.70;;;;;;4977164;28;20034;-64
2022/07/10 08:24:39;;;;;;;2.35;1.20;;;24.10;94.70;;;;;;4975613;28;20022;-65
2022/07/10 08:27:06;;;;;;;5.45;1.20;;;24.30;94.60;;;;;;4976745;28;20157;-67
2022/07/10 08:29:31;;;;;;;4.80;1.35;;;24.40;94.30;;;;;;4977311;28;20453;-64
2022/07/10 08:31:57;;;;;;;3.67;1.63;;;24.50;93.90;;;;;;4976805;28;20018;-67
2022/07/10 08:34:22;;;;;;;2.47;1.17;;;24.50;93.70;;;;;;4977346;28;20038;-64
2022/07/10 08:36:48;;;;;;;4.78;1.35;;;24.50;93.30;;;;;;4976791;28;20030;-64
2022/07/10 08:39:16;;;;;;;5.35;1.25;;;24.50;93.20;;;;;;4976913;28;20465;-65
2022/07/10 08:41:43;;;;;;;3.88;1.50;;;24.60;93.00;;;;;;4976850;28;20023;-68
2022/07/10 08:44:08;;;;;;;4.68;1.50;;;24.60;92.80;;;;;;4976292;28;20046;-65
2022/07/10 08:46:35;;;;;;;8.07;1.85;;;24.60;92.40;;;;;;4976852;28;20097;-69
2022/07/10 08:49:08;;;;;;;4.38;1.10;;;24.70;92.30;;;;;;4974038;28;20457;-65
2022/07/10 08:51:40;;;;;;;7.38;1.30;;;24.80;91.90;;;;;;4976719;28;20106;-66
2022/07/10 08:54:08;;;;;;;2.38;1.05;;;24.90;92.00;;;;;;4976877;28;20090;-65
2022/07/10 08:56:35;;;;;;;3.78;1.40;;;24.80;91.90;;;;;;4976507;28;20082;-65
2022/07/10 08:59:06;;;;;;;6.13;1.35;;;24.80;92.00;;;;;;4976654;28;20030;-66
2022/07/10 09:01:32;;;;;;;4.18;1.15;;;24.70;92.10;;;;;;4976635;28;20027;-65
2022/07/10 09:03:57;;;;;;;3.33;1.30;;;24.70;92.20;;;;;;4975563;28;20026;-68
2022/07/10 09:06:23;;;;;;;5.93;1.40;;;24.70;92.10;;;;;;4975119;28;20022;-65
2022/07/10 09:08:59;;;;;;;4.13;1.27;;;24.80;92.10;;;;;;4976205;28;20035;-69
2022/07/10 09:11:28;;;;;;;5.82;2.58;;;25.00;91.90;;;;;;4976747;28;20475;-64
2022/07/10 09:13:56;;;;;;;4.40;1.77;;;25.20;91.60;;;;;;4976329;28;20416;-67
2022/07/10 09:16:27;;;;;;;2.67;1.48;;;25.30;91.10;;;;;;4976413;28;20057;-67
2022/07/10 09:18:53;;;;;;;5.43;2.07;;;25.50;91.00;;;;;;4976194;28;20029;-67
2022/07/10 09:21:20;;;;;;;5.22;1.65;;;25.70;90.80;;;;;;4975944;28;20026;-66
2022/07/10 09:23:46;;;;;;;4.05;1.65;;;26.00;90.30;;;;;;4975940;28;20349;-64
2022/07/10 09:26:12;;;;;;;4.95;1.20;;;26.30;90.30;;;;;;4971906;28;20042;-64
2022/07/10 09:28:37;;;;;;;4.90;1.20;;;26.60;90.10;;;;;;4974435;28;20031;-64
2022/07/10 09:31:03;;;;;;;5.75;1.30;;;27.00;89.40;;;;;;4975933;28;20173;-67
2022/07/10 09:33:30;;;;;;;5.47;1.50;;;27.50;89.30;;;;;;4976157;28;20029;-65
2022/07/10 09:36:05;;;;;;;3.55;1.10;;;27.90;88.00;;;;;;4975315;28;20445;-65
2022/07/10 09:38:49;;;;;;;6.10;1.50;;;28.20;86.60;;;;;;4975656;28;20022;-65
2022/07/10 09:41:27;;;;;;;5.47;1.15;;;28.20;85.80;;;;;;4975898;28;20461;-64
2022/07/10 09:44:04;;;;;;;2.63;1.10;;;28.70;84.90;;;;;;4975927;28;20030;-64
2022/07/10 09:46:38;;;;;;;4.20;1.08;;;29.30;84.70;;;;;;4975655;28;20034;-68
2022/07/10 09:49:12;;;;;;;2.05;0.77;;;29.60;80.20;;;;;;4975577;28;20461;-67
2022/07/10 09:51:39;;;;;;;1.95;0.80;;;29.40;79.30;;;;;;4975703;28;20027;-67
2022/07/10 09:54:07;;;;;;;3.15;1.23;;;29.10;79.00;;;;;;4975621;28;20049;-67
2022/07/10 09:56:40;;;;;;;5.60;1.73;;;29.00;80.10;;;;;;4975730;28;20031;-64
2022/07/10 09:59:09;;;;;;;3.72;1.30;;;28.70;80.50;;;;;;4975760;28;20030;-64
2022/07/10 10:01:37;;;;;;;5.72;1.42;;;28.70;81.20;;;;;;4973970;28;20022;-64
2022/07/10 10:04:04;;;;;;;2.90;1.10;;;28.60;82.10;;;;;;4974887;28;20081;-65
2022/07/10 10:06:30;;;;;;;6.60;1.20;;;28.50;80.20;;;;;;4975583;28;20031;-67
2022/07/10 10:09:18;;;;;;;8.02;1.65;;;28.50;80.20;;;;;;4975300;28;20117;-66
2022/07/10 10:11:47;;;;;;;4.60;1.10;;;28.50;81.00;;;;;;4974920;28;20468;-70
2022/07/10 10:14:15;;;;;;;5.07;1.10;;;28.60;81.70;;;;;;4974057;28;20499;-65
2022/07/10 10:16:44;;;;;;;5.30;1.13;;;28.50;81.40;;;;;;4974272;28;20026;-65
2022/07/10 10:21:57;;;;;;;6.75;1.67;;;28.20;81.40;;;;;;4975462;28;20388;-67
2022/07/10 10:24:25;;;;;;;4.75;1.77;;;28.30;82.60;;;;;;4974863;28;20121;-65
2022/07/10 10:26:51;;;;;;;2.88;1.08;;;28.50;81.40;;;;;;4973675;28;20364;-64
2022/07/10 10:29:16;;;;;;;5.10;1.20;;;28.90;81.20;;;;;;4974912;28;20029;-64
2022/07/10 10:31:43;;;;;;;2.08;0.98;;;29.40;81.00;;;;;;4975124;28;20099;-65
2022/07/10 10:34:09;;;;;;;3.38;1.27;;;30.20;79.40;;;;;;4974435;28;20022;-65
2022/07/10 10:36:46;;;;;;;1.70;1.00;;;30.80;78.30;;;;;;4974654;28;20031;-67
2022/07/10 10:39:19;;;;;;;4.80;1.10;;;31.10;76.50;;;;;;4974836;28;20517;-65
2022/07/10 10:41:52;;;;;;;1.77;0.90;;;31.30;76.70;;;;;;4974787;28;20015;-69
2022/07/10 10:44:17;;;;;;;4.63;1.50;;;31.40;77.00;;;;;;4984465;28;20035;-65
2022/07/10 10:47:09;;;;;;;3.50;1.15;;;31.50;75.50;;;;;;4987023;28;20028;-65
2022/07/10 10:49:52;;;;;;;4.07;1.00;;;31.60;76.30;;;;;;4992210;28;20530;-65
2022/07/10 10:52:19;;;;;;;2.65;0.85;;;32.00;75.10;;;;;;4990037;28;20142;-64
2022/07/10 10:54:57;;;;;;;1.75;0.80;;;32.20;73.10;;;;;;4988073;28;20105;-67
2022/07/10 10:57:36;;;;;;;5.32;1.13;;;32.30;73.20;;;;;;4986739;28;20077;-64
2022/07/10 11:00:07;;;;;;;4.97;1.00;;;32.20;71.50;;;;;;4988508;28;20026;-64
2022/07/10 11:02:34;;;;;;;3.42;1.00;;;32.10;73.80;;;;;;4984413;28;20015;-64
2022/07/10 11:05:20;;;;;;;4.68;1.13;;;31.90;74.30;;;;;;4984400;28;20019;-64
2022/07/10 11:08:00;;;;;;;5.35;1.42;;;31.60;74.50;;;;;;4973455;28;20424;-64
2022/07/10 11:10:39;;;;;;;7.28;1.98;;;31.20;75.30;;;;;;4974502;28;20022;-67
2022/07/10 11:13:12;;;;;;;5.10;1.88;;;31.00;74.90;;;;;;4973789;28;20015;-64
2022/07/10 11:15:39;;;;;;;4.50;1.40;;;31.00;75.40;;;;;;4971197;28;20102;-65
2022/07/10 11:18:12;;;;;;;5.15;1.73;;;31.10;75.20;;;;;;4970534;28;20034;-66
2022/07/10 11:20:42;;;;;;;7.35;2.00;;;31.20;75.50;;;;;;4973610;28;20492;-65
2022/07/10 11:23:32;;;;;;;5.88;1.23;;;31.30;75.10;;;;;;4973030;28;20023;-65
2022/07/10 11:26:07;;;;;;;5.00;1.30;;;31.20;75.00;;;;;;4972973;28;20161;-65
2022/07/10 11:28:54;;;;;;;6.13;1.27;;;31.40;75.20;;;;;;4971688;28;20030;-65
2022/07/10 11:31:22;;;;;;;5.38;1.88;;;31.50;75.30;;;;;;4973610;28;20030;-65
2022/07/10 11:33:51;;;;;;;5.47;1.33;;;31.60;74.30;;;;;;4973763;28;20055;-66
2022/07/10 11:36:21;;;;;;;3.28;1.02;;;31.60;74.60;;;;;;4973881;28;20067;-66
2022/07/10 11:38:47;;;;;;;4.00;1.08;;;31.40;74.40;;;;;;4974023;28;20073;-68
2022/07/10 11:41:22;;;;;;;3.92;1.10;;;31.30;74.80;;;;;;4973700;28;20103;-65
2022/07/10 11:43:53;;;;;;;2.63;0.90;;;31.50;74.60;;;;;;4973856;28;20022;-65
2022/07/10 11:46:24;;;;;;;5.63;1.00;;;31.70;73.40;;;;;;4974231;28;20031;-68
2022/07/10 11:48:52;;;;;;;4.45;1.25;;;31.70;72.30;;;;;;4974130;28;20034;-64
2022/07/10 11:51:20;;;;;;;2.97;1.00;;;31.80;73.40;;;;;;4973188;28;20018;-67
2022/07/10 11:53:57;;;;;;;5.45;1.40;;;31.90;73.90;;;;;;4974757;28;20023;-69
2022/07/10 11:56:24;;;;;;;4.07;1.35;;;32.00;74.00;;;;;;4973145;28;20031;-66
2022/07/10 11:59:00;;;;;;;3.75;1.65;;;32.30;73.80;;;;;;4973913;28;20031;-65
2022/07/10 12:01:28;;;;;;;3.08;1.23;;;32.60;73.80;;;;;;4974191;28;20015;-66
2022/07/10 12:03:56;;;;;;;4.32;1.55;;;32.70;72.70;;;;;;4973587;28;20334;-65
2022/07/10 12:06:23;;;;;;;4.97;1.10;;;32.50;73.70;;;;;;4973202;28;20023;-64
2022/07/10 12:08:48;;;;;;;2.88;1.27;;;32.40;72.90;;;;;;4973697;28;20457;-66
2022/07/10 12:11:19;;;;;;;3.35;1.20;;;32.20;72.70;;;;;;4972853;28;20027;-66
2022/07/10 12:13:46;;;;;;;4.97;1.00;;;32.10;72.00;;;;;;4973445;28;20021;-66
2022/07/10 12:16:12;;;;;;;3.85;1.20;;;32.20;72.10;;;;;;4973850;28;20413;-65
2022/07/10 12:18:40;;;;;;;3.40;1.20;;;32.00;72.70;;;;;;4973398;28;20117;-64
2022/07/10 12:21:06;;;;;;;4.22;1.30;;;32.00;72.70;;;;;;4973836;28;20031;-70
2022/07/10 12:23:34;;;;;;;2.42;0.95;;;32.10;72.80;;;;;;4974347;28;20026;-65
2022/07/10 12:26:01;;;;;;;5.10;1.48;;;32.00;71.60;;;;;;4977343;28;20065;-67
2022/07/10 12:28:27;;;;;;;1.80;0.80;;;31.90;73.20;;;;;;5008151;28;20031;-68
2022/07/10 12:30:53;;;;;;;8.13;1.38;;;32.00;73.00;;;;;;4976943;28;20023;-64
2022/07/10 12:33:23;;;;;;;1.95;0.90;;;31.90;71.70;;;;;;4977096;28;20066;-64
2022/07/10 12:35:57;;;;;;;5.57;1.13;;;31.70;72.20;;;;;;4977191;28;20022;-68
2022/07/10 12:38:33;;;;;;;2.97;1.20;;;31.70;72.80;;;;;;4977050;28;20034;-66
2022/07/10 12:41:12;;;;;;;3.10;1.13;;;31.70;73.20;;;;;;4977001;28;20023;-68
2022/07/10 12:43:39;;;;;;;3.38;0.90;;;31.60;73.10;;;;;;4976542;28;20030;-65
2022/07/10 12:46:12;;;;;;;9.45;1.42;;;31.40;73.50;;;;;;4976902;28;20420;-66
2022/07/10 12:48:40;;;;;;;3.78;1.20;;;31.10;74.00;;;;;;4977282;28;20070;-68
2022/07/10 12:51:45;;;;;;;1.98;1.02;;;30.80;73.80;;;;;;4978305;28;20046;-64
2022/07/10 12:54:30;;;;;;;4.45;1.25;;;30.80;74.20;;;;;;4978225;28;20086;-68
2022/07/10 12:57:00;;;;;;;3.33;0.85;;;30.80;74.10;;;;;;4976732;28;20500;-66